South Windham, Maine
Current Conditions -  °F | °C
As of 12:51 PM on Wednesday 28 Jan 2015 (Local Time) from KPWM Reporting Station
Broken Clouds Broken Clouds  
Wind Chill: 12°   Ceiling: 10000
Heat Index: 25°   Visibility: 10mi
Dew Point:   Wind: 16mph
Humidity: 49%   Direction: 330°NNW
Pressure: 29.91"   Gusts: NA
Location:  43.74°N, 70.42°W
Report Text: KPWM 281751Z 33014KT 10SM FEW095 BKN100 M04/M13 A2991 RMK AO2 SLP129 T10391133 11039 21083 58000
Loading
Personal Weather Stations






























Interactive Weather Map New forecast layout! Learn more

10-Day Weather Forecast

Advertisements
Track Severe Weather on mobile